createdAt,value
2023-02-24T00:01:25.738Z,99.90
2023-02-24T00:04:00.275Z,99.90
2023-02-24T00:06:36.900Z,99.90
2023-02-24T00:09:06.791Z,99.90
2023-02-24T00:11:36.283Z,99.90
2023-02-24T00:14:07.525Z,99.90
2023-02-24T00:16:35.263Z,99.90
2023-02-24T00:19:03.655Z,99.90
2023-02-24T00:21:31.116Z,99.90
2023-02-24T00:23:59.510Z,99.90
2023-02-24T00:26:27.160Z,99.90
2023-02-24T00:28:54.507Z,99.90
2023-02-24T00:31:24.355Z,99.90
2023-02-24T00:33:52.500Z,99.90
2023-02-24T00:36:26.727Z,99.90
2023-02-24T00:38:55.854Z,99.90
2023-02-24T00:41:31.329Z,99.90
2023-02-24T00:44:07.377Z,99.90
2023-02-24T00:46:35.905Z,99.90
2023-02-24T00:49:07.436Z,99.90
2023-02-24T00:51:38.501Z,99.90
2023-02-24T00:54:05.851Z,99.90
2023-02-24T00:56:33.773Z,99.90
2023-02-24T00:59:01.707Z,99.90
2023-02-24T01:01:32.111Z,99.90
2023-02-24T01:04:11.441Z,99.90
2023-02-24T01:06:41.580Z,99.90
2023-02-24T01:09:12.208Z,99.90
2023-02-24T01:11:58.436Z,99.90
2023-02-24T01:14:27.430Z,99.90
2023-02-24T01:16:55.899Z,99.90
2023-02-24T01:19:31.510Z,99.90
2023-02-24T01:22:03.804Z,99.90
2023-02-24T01:24:33.085Z,99.90
2023-02-24T01:27:00.425Z,99.90
2023-02-24T01:29:28.542Z,99.90
2023-02-24T01:31:58.867Z,99.90
2023-02-24T01:34:27.178Z,99.90
2023-02-24T01:36:58.009Z,99.90
2023-02-24T01:39:25.990Z,99.90
2023-02-24T01:41:53.365Z,99.90
2023-02-24T01:44:25.117Z,99.90
2023-02-24T01:46:53.284Z,99.90
2023-02-24T01:49:45.933Z,99.90
2023-02-24T01:52:17.489Z,99.90
2023-02-24T01:55:15.064Z,99.90
2023-02-24T01:57:42.522Z,99.90
2023-02-24T02:00:11.734Z,99.90
2023-02-24T02:02:44.825Z,99.90
2023-02-24T02:05:12.451Z,99.90
2023-02-24T02:07:40.390Z,99.90
2023-02-24T02:10:08.540Z,99.90
2023-02-24T02:12:38.489Z,99.90
2023-02-24T02:15:06.443Z,99.90
2023-02-24T02:17:52.318Z,99.90
2023-02-24T02:20:28.662Z,99.90
2023-02-24T02:23:17.554Z,99.90
2023-02-24T02:26:19.729Z,99.90
2023-02-24T02:29:05.111Z,99.90
2023-02-24T02:31:32.624Z,99.90
2023-02-24T02:34:11.865Z,99.90
2023-02-24T02:36:57.368Z,99.90
2023-02-24T02:39:59.261Z,99.90
2023-02-24T02:42:30.239Z,99.90
2023-02-24T02:45:05.193Z,99.90
2023-02-24T02:47:35.007Z,99.90
2023-02-24T02:50:12.270Z,99.90
2023-02-24T02:52:42.634Z,99.90
2023-02-24T02:55:37.938Z,99.90
2023-02-24T02:58:09.192Z,99.90
2023-02-24T03:00:42.101Z,99.90
2023-02-24T03:03:12.764Z,99.90
2023-02-24T03:05:52.041Z,99.90
2023-02-24T03:08:22.109Z,99.90
2023-02-24T03:10:53.394Z,99.90
2023-02-24T03:13:23.102Z,99.90
2023-02-24T03:15:51.684Z,99.90
2023-02-24T03:18:29.063Z,99.90
2023-02-24T03:21:07.630Z,99.90
2023-02-24T03:23:55.358Z,99.90
2023-02-24T03:26:30.652Z,99.90
2023-02-24T03:29:06.583Z,99.90
2023-02-24T03:31:40.641Z,99.90
2023-02-24T03:34:27.743Z,99.90
2023-02-24T03:36:55.999Z,99.90
2023-02-24T03:39:24.032Z,99.90
2023-02-24T03:42:19.032Z,99.90
2023-02-24T03:44:46.672Z,99.90
2023-02-24T03:47:16.174Z,99.90
2023-02-24T03:49:43.845Z,99.90
2023-02-24T03:52:40.658Z,99.90
2023-02-24T03:55:33.200Z,99.90
2023-02-24T03:58:31.295Z,99.90
2023-02-24T04:01:09.454Z,99.90
2023-02-24T04:03:58.917Z,99.90
2023-02-24T04:06:45.008Z,99.90
2023-02-24T04:09:27.489Z,99.90
2023-02-24T04:12:31.213Z,99.90
2023-02-24T04:15:29.552Z,99.90
2023-02-24T04:18:03.348Z,99.90
2023-02-24T04:20:36.370Z,99.90
2023-02-24T04:23:12.353Z,99.90
2023-02-24T04:25:41.906Z,99.90
2023-02-24T04:28:10.325Z,99.90
2023-02-24T04:30:42.570Z,99.90
2023-02-24T04:33:11.808Z,99.90
2023-02-24T04:35:40.631Z,99.90
2023-02-24T04:38:08.546Z,99.90
2023-02-24T04:40:36.978Z,99.90
2023-02-24T04:43:04.278Z,99.90
2023-02-24T04:45:32.296Z,99.90
2023-02-24T04:48:03.594Z,99.90
2023-02-24T04:50:35.570Z,99.90
2023-02-24T04:53:09.389Z,99.30
2023-02-24T04:55:48.625Z,99.10
2023-02-24T04:58:21.297Z,99.20
2023-02-24T05:00:52.551Z,97.50
2023-02-24T05:03:20.914Z,95.90
2023-02-24T05:06:00.074Z,96.90
2023-02-24T05:08:29.026Z,95.10
2023-02-24T05:11:01.085Z,99.00
2023-02-24T05:13:31.671Z,96.60
2023-02-24T05:16:04.110Z,96.60
2023-02-24T05:18:37.193Z,99.90
2023-02-24T05:21:34.358Z,97.80
2023-02-24T05:24:06.755Z,95.30
2023-02-24T05:26:35.890Z,91.70
2023-02-24T05:29:03.944Z,79.60
2023-02-24T05:31:31.297Z,71.20
2023-02-24T05:34:03.191Z,75.20
2023-02-24T05:36:33.224Z,82.70
2023-02-24T05:39:07.565Z,88.70
2023-02-24T05:41:41.690Z,91.80
2023-02-24T05:44:15.800Z,94.00
2023-02-24T05:46:44.932Z,95.80
2023-02-24T05:49:14.374Z,97.60
2023-02-24T05:51:43.531Z,99.50
2023-02-24T05:54:13.170Z,99.90
2023-02-24T05:56:43.835Z,99.90
2023-02-24T05:59:12.434Z,99.90
2023-02-24T06:01:45.826Z,99.90
2023-02-24T06:04:20.899Z,99.90
2023-02-24T06:06:52.558Z,99.90
2023-02-24T06:09:23.096Z,99.90
2023-02-24T06:11:50.747Z,99.90
2023-02-24T06:14:18.087Z,99.90
2023-02-24T06:16:45.428Z,99.90
2023-02-24T06:19:13.426Z,99.90
2023-02-24T06:21:41.464Z,99.90
2023-02-24T06:24:14.592Z,99.90
2023-02-24T06:26:45.738Z,99.90
2023-02-24T06:29:17.296Z,99.90
2023-02-24T06:31:45.152Z,99.90
2023-02-24T06:34:13.900Z,99.90
2023-02-24T06:36:43.048Z,99.90
2023-02-24T06:39:13.586Z,99.90
2023-02-24T06:41:42.499Z,99.90
2023-02-24T06:44:09.919Z,99.90
2023-02-24T06:46:37.364Z,99.90
2023-02-24T06:49:04.659Z,99.90
2023-02-24T06:51:31.959Z,99.90
2023-02-24T06:53:59.706Z,99.90
2023-02-24T06:56:27.479Z,99.90
2023-02-24T06:58:55.902Z,99.90
2023-02-24T07:01:25.733Z,99.90
2023-02-24T07:04:02.906Z,99.90
2023-02-24T07:06:32.079Z,99.90
2023-02-24T07:08:59.429Z,99.90
2023-02-24T07:11:28.734Z,99.90
2023-02-24T07:13:57.532Z,99.90
2023-02-24T07:16:31.057Z,99.90
2023-02-24T07:18:59.352Z,99.90
2023-02-24T07:21:27.544Z,99.90
2023-02-24T07:23:58.861Z,99.90
2023-02-24T07:26:27.739Z,99.90
2023-02-24T07:28:55.175Z,99.90
2023-02-24T07:31:24.269Z,99.90
2023-02-24T07:33:57.195Z,99.90
2023-02-24T07:36:24.741Z,99.90
2023-02-24T07:38:52.887Z,99.90
2023-02-24T07:41:22.853Z,99.90
2023-02-24T07:43:51.744Z,99.90
2023-02-24T07:46:27.987Z,99.90
2023-02-24T07:48:56.095Z,99.90
2023-02-24T07:51:24.737Z,99.90
2023-02-24T07:53:59.291Z,99.90
2023-02-24T07:56:27.760Z,99.90
2023-02-24T07:58:59.408Z,99.90
2023-02-24T08:01:30.456Z,99.90
2023-02-24T08:04:08.018Z,99.90
2023-02-24T08:06:39.700Z,99.90
2023-02-24T08:09:46.067Z,99.90
2023-02-24T08:12:18.014Z,99.90
2023-02-24T08:14:50.892Z,99.90
2023-02-24T08:17:23.478Z,99.90
2023-02-24T08:20:10.936Z,99.90
2023-02-24T08:22:44.007Z,99.90
2023-02-24T08:25:18.192Z,99.90
2023-02-24T08:27:49.396Z,99.90
2023-02-24T08:30:29.878Z,99.90
2023-02-24T08:32:57.439Z,99.90
2023-02-24T08:35:31.932Z,99.90
2023-02-24T08:38:07.714Z,99.90
2023-02-24T08:40:51.726Z,99.90
2023-02-24T08:43:30.099Z,99.90
2023-02-24T08:46:13.223Z,99.90
2023-02-24T08:48:42.627Z,99.90
2023-02-24T08:51:30.551Z,99.90
2023-02-24T08:53:59.567Z,99.90
2023-02-24T08:56:28.633Z,99.90
2023-02-24T08:59:05.468Z,99.90
2023-02-24T09:01:40.110Z,99.90
2023-02-24T09:04:08.507Z,99.90
2023-02-24T09:06:43.337Z,99.90
2023-02-24T09:09:17.821Z,99.90
2023-02-24T09:11:56.364Z,99.90
2023-02-24T09:14:37.360Z,99.90
2023-02-24T09:17:07.269Z,99.90
2023-02-24T09:19:47.704Z,99.90
2023-02-24T09:22:31.221Z,99.90
2023-02-24T09:25:21.944Z,99.90
2023-02-24T09:28:08.008Z,99.90
2023-02-24T09:30:37.911Z,99.90
2023-02-24T09:33:18.224Z,99.90
2023-02-24T09:35:47.054Z,99.90
2023-02-24T09:38:17.983Z,99.90
2023-02-24T09:40:49.632Z,99.90
2023-02-24T09:43:24.577Z,99.90
2023-02-24T09:46:02.264Z,99.90
2023-02-24T09:48:43.622Z,99.90
2023-02-24T09:51:25.739Z,99.90
2023-02-24T09:53:54.846Z,99.90
2023-02-24T09:56:42.893Z,99.90
2023-02-24T09:59:26.215Z,99.90
2023-02-24T10:02:17.900Z,99.90
2023-02-24T10:04:53.988Z,99.90
2023-02-24T10:07:30.440Z,99.90
2023-02-24T10:10:19.405Z,99.90
2023-02-24T10:12:58.366Z,99.90
2023-02-24T10:15:57.048Z,99.90
2023-02-24T10:18:33.489Z,99.90
2023-02-24T10:21:21.383Z,99.90
2023-02-24T10:24:00.298Z,99.90
2023-02-24T10:26:32.834Z,99.90
2023-02-24T10:29:22.668Z,99.90
2023-02-24T10:31:57.769Z,99.90
2023-02-24T10:34:31.792Z,99.90
2023-02-24T10:37:14.052Z,99.90
2023-02-24T10:39:51.888Z,99.90
2023-02-24T10:42:31.792Z,99.90
2023-02-24T10:45:18.266Z,99.90
2023-02-24T10:47:57.615Z,99.90
2023-02-24T10:50:55.487Z,99.90
2023-02-24T10:53:37.672Z,99.90
2023-02-24T10:56:26.565Z,99.90
2023-02-24T10:59:40.714Z,99.90
2023-02-24T11:02:30.034Z,99.90
2023-02-24T11:05:02.551Z,99.90
2023-02-24T11:07:43.997Z,99.70
2023-02-24T11:10:26.158Z,99.20
2023-02-24T11:13:13.471Z,99.20
2023-02-24T11:16:09.728Z,99.00
2023-02-24T11:18:37.162Z,98.80
2023-02-24T11:21:06.055Z,98.80
2023-02-24T11:23:51.081Z,98.30
2023-02-24T11:26:23.258Z,98.30
2023-02-24T11:30:03.853Z,98.10
2023-02-24T11:32:59.632Z,98.00
2023-02-24T11:35:36.854Z,97.90
2023-02-24T11:38:18.093Z,97.40
2023-02-24T11:40:48.397Z,97.00
2023-02-24T11:43:21.057Z,97.10
2023-02-24T11:46:02.238Z,97.30
2023-02-24T11:48:34.055Z,97.40
2023-02-24T11:51:18.318Z,97.30
2023-02-24T11:54:13.167Z,97.60
2023-02-24T11:56:45.177Z,98.40
2023-02-24T11:59:31.317Z,98.20
2023-02-24T12:02:30.256Z,98.80
2023-02-24T12:05:14.710Z,98.90
2023-02-24T12:07:44.352Z,99.10
2023-02-24T12:10:29.215Z,99.20
2023-02-24T12:13:02.706Z,99.90
2023-02-24T12:15:38.955Z,99.90
2023-02-24T12:18:14.900Z,99.90
2023-02-24T12:20:52.848Z,99.90
2023-02-24T12:23:26.308Z,99.90
2023-02-24T12:26:15.934Z,99.90
2023-02-24T12:29:07.595Z,99.90
2023-02-24T12:31:37.789Z,99.90
2023-02-24T12:34:29.765Z,99.90
2023-02-24T12:37:28.248Z,99.90
2023-02-24T12:40:01.371Z,99.90
2023-02-24T12:42:48.449Z,99.90
2023-02-24T12:45:22.021Z,99.90
2023-02-24T12:48:26.470Z,99.90
2023-02-24T12:51:25.457Z,99.90
2023-02-24T12:54:06.651Z,99.90
2023-02-24T12:56:38.350Z,99.90
2023-02-24T12:59:06.131Z,99.90
2023-02-24T13:01:36.502Z,99.90
2023-02-24T13:04:26.166Z,99.90
2023-02-24T13:07:17.370Z,99.90
2023-02-24T13:10:01.487Z,99.90
2023-02-24T13:12:53.096Z,99.90
2023-02-24T13:15:25.571Z,99.90
2023-02-24T13:17:55.737Z,99.90
2023-02-24T13:20:38.039Z,99.90
2023-02-24T13:23:21.146Z,99.90
2023-02-24T13:25:52.425Z,99.90
2023-02-24T13:28:27.786Z,99.90
2023-02-24T13:31:02.327Z,99.90
2023-02-24T13:33:39.077Z,99.90
2023-02-24T13:36:21.702Z,99.90
2023-02-24T13:39:06.174Z,99.90
2023-02-24T13:41:35.666Z,99.90
2023-02-24T13:44:21.321Z,99.90
2023-02-24T13:47:11.694Z,99.90
2023-02-24T13:50:18.723Z,99.90
2023-02-24T13:53:04.938Z,99.90
2023-02-24T13:55:47.259Z,99.90
2023-02-24T13:58:28.490Z,99.90
2023-02-24T14:01:05.511Z,99.90
2023-02-24T14:03:33.113Z,99.90
2023-02-24T14:06:01.491Z,99.90
2023-02-24T14:08:56.028Z,99.90
2023-02-24T14:11:28.876Z,99.90
2023-02-24T14:13:56.771Z,99.90
2023-02-24T14:16:29.757Z,99.90
2023-02-24T14:19:03.341Z,99.90
2023-02-24T14:21:32.360Z,99.90
2023-02-24T14:24:12.696Z,99.90
2023-02-24T14:26:48.794Z,99.90
2023-02-24T14:29:27.352Z,99.90
2023-02-24T14:31:55.453Z,99.90
2023-02-24T14:34:24.564Z,99.90
2023-02-24T14:36:59.595Z,99.90
2023-02-24T14:39:31.251Z,99.90
2023-02-24T14:42:11.319Z,99.90
2023-02-24T14:44:47.136Z,99.90
2023-02-24T14:47:15.444Z,99.90
2023-02-24T14:49:51.105Z,99.90
2023-02-24T14:52:41.990Z,99.90
2023-02-24T14:55:27.646Z,99.90
2023-02-24T14:58:02.852Z,99.90
2023-02-24T15:00:36.439Z,99.90
2023-02-24T15:03:13.147Z,99.90
2023-02-24T15:05:49.043Z,99.90
2023-02-24T15:08:21.778Z,99.90
2023-02-24T15:10:49.180Z,99.90
2023-02-24T15:13:43.430Z,99.90
2023-02-24T15:16:17.712Z,99.90
2023-02-24T15:18:45.096Z,99.90
2023-02-24T15:21:20.408Z,99.90
2023-02-24T15:23:47.998Z,99.90
2023-02-24T15:26:51.424Z,99.90
2023-02-24T15:29:25.725Z,99.90
2023-02-24T15:31:53.795Z,99.90
2023-02-24T15:34:29.213Z,99.90
2023-02-24T15:36:58.776Z,99.90
2023-02-24T15:39:27.925Z,99.90
2023-02-24T15:42:28.839Z,99.90
2023-02-24T15:44:57.931Z,99.90
2023-02-24T15:47:31.467Z,99.90
2023-02-24T15:49:59.409Z,99.90
2023-02-24T15:52:28.089Z,99.90
2023-02-24T15:54:56.708Z,99.90
2023-02-24T15:57:25.067Z,99.90
2023-02-24T15:59:52.474Z,99.90
2023-02-24T16:02:21.081Z,99.90
2023-02-24T16:04:48.656Z,99.90
2023-02-24T16:07:28.889Z,99.90
2023-02-24T16:09:56.243Z,99.90
2023-02-24T16:12:32.993Z,99.90
2023-02-24T16:15:04.077Z,99.90
2023-02-24T16:17:32.268Z,99.90
2023-02-24T16:20:00.174Z,99.90
2023-02-24T16:22:27.613Z,99.90
2023-02-24T16:24:55.079Z,99.90
2023-02-24T16:27:22.781Z,99.90
2023-02-24T16:29:51.048Z,99.90
2023-02-24T16:32:21.514Z,99.90
2023-02-24T16:34:49.764Z,99.90
2023-02-24T16:37:27.658Z,99.90
2023-02-24T16:39:55.057Z,99.90
2023-02-24T16:42:22.576Z,99.90
2023-02-24T16:44:50.089Z,99.90
2023-02-24T16:47:23.075Z,99.90
2023-02-24T16:49:50.850Z,99.90
2023-02-24T16:52:19.357Z,99.90
2023-02-24T16:54:48.281Z,99.90
2023-02-24T16:57:16.132Z,99.90
2023-02-24T16:59:43.874Z,99.90
2023-02-24T17:02:18.817Z,99.90
2023-02-24T17:04:46.193Z,99.90
2023-02-24T17:07:14.602Z,99.90
2023-02-24T17:09:42.122Z,99.90
2023-02-24T17:12:12.209Z,99.90
2023-02-24T17:14:39.830Z,99.90
2023-02-24T17:17:07.265Z,99.90
2023-02-24T17:19:34.758Z,99.90
2023-02-24T17:22:02.094Z,99.90
2023-02-24T17:24:29.955Z,99.90
2023-02-24T17:27:01.080Z,99.90
2023-02-24T17:29:28.543Z,99.90
2023-02-24T17:31:57.473Z,99.90
2023-02-24T17:34:24.941Z,99.90
2023-02-24T17:36:52.258Z,99.90
2023-02-24T17:39:19.764Z,99.90
2023-02-24T17:41:47.094Z,99.90
2023-02-24T17:44:14.519Z,99.90
2023-02-24T17:46:41.929Z,99.90
2023-02-24T17:49:09.544Z,99.90
2023-02-24T17:51:36.813Z,99.90
2023-02-24T17:54:04.224Z,99.90
2023-02-24T17:56:31.683Z,99.90
2023-02-24T17:59:01.076Z,99.90
2023-02-24T18:01:28.550Z,99.90
2023-02-24T18:03:57.488Z,99.90
2023-02-24T18:06:25.119Z,99.90
2023-02-24T18:08:52.533Z,99.90
2023-02-24T18:11:20.072Z,99.90
2023-02-24T18:13:50.866Z,99.90
2023-02-24T18:16:18.438Z,99.90
2023-02-24T18:18:45.795Z,99.90
2023-02-24T18:21:13.256Z,99.90
2023-02-24T18:23:40.963Z,99.90
2023-02-24T18:26:09.220Z,99.90
2023-02-24T18:28:36.693Z,99.90
2023-02-24T18:31:14.835Z,99.90
2023-02-24T18:33:42.440Z,99.90
2023-02-24T18:36:10.560Z,99.90
2023-02-24T18:38:37.962Z,99.90
2023-02-24T18:41:10.558Z,99.90
2023-02-24T18:43:37.982Z,99.90
2023-02-24T18:46:06.778Z,99.90
2023-02-24T18:48:34.623Z,99.90
2023-02-24T18:51:02.180Z,99.90
2023-02-24T18:53:31.350Z,99.90
2023-02-24T18:56:06.695Z,99.90
2023-02-24T18:58:34.299Z,99.90
2023-02-24T19:01:01.684Z,99.90
2023-02-24T19:03:29.038Z,99.90
2023-02-24T19:05:56.411Z,99.90
2023-02-24T19:08:23.793Z,99.90
2023-02-24T19:10:51.124Z,99.90
2023-02-24T19:13:18.442Z,99.90
2023-02-24T19:15:45.809Z,99.90
2023-02-24T19:18:13.264Z,99.90
2023-02-24T19:20:43.853Z,99.90
2023-02-24T19:23:11.238Z,99.90
2023-02-24T19:25:38.571Z,99.90
2023-02-24T19:28:05.946Z,99.90
2023-02-24T19:30:33.280Z,99.90
2023-02-24T19:33:00.764Z,99.90
2023-02-24T19:35:28.204Z,99.90
2023-02-24T19:37:55.612Z,99.90
2023-02-24T19:40:23.593Z,99.90
2023-02-24T19:42:51.842Z,99.90
2023-02-24T19:45:19.370Z,99.90
2023-02-24T19:47:46.980Z,99.90
2023-02-24T19:50:14.836Z,99.90
2023-02-24T19:52:42.802Z,99.90
2023-02-24T19:55:13.142Z,99.90
2023-02-24T19:57:40.451Z,99.90
2023-02-24T20:00:11.478Z,99.90
2023-02-24T20:02:41.909Z,99.90
2023-02-24T20:05:10.415Z,99.90
2023-02-24T20:07:37.882Z,99.90
2023-02-24T20:10:05.632Z,99.90
2023-02-24T20:12:33.003Z,99.90
2023-02-24T20:15:00.344Z,99.90
2023-02-24T20:17:27.660Z,99.90
2023-02-24T20:19:55.007Z,99.90
2023-02-24T20:22:22.345Z,99.90
2023-02-24T20:24:50.376Z,99.90
2023-02-24T20:27:19.075Z,99.90
2023-02-24T20:29:46.968Z,99.90
2023-02-24T20:32:14.493Z,99.90
2023-02-24T20:34:42.183Z,99.90
2023-02-24T20:37:09.467Z,99.90
2023-02-24T20:39:37.276Z,99.90
2023-02-24T20:42:04.674Z,99.90
2023-02-24T20:44:31.977Z,99.90
2023-02-24T20:46:59.342Z,99.90
2023-02-24T20:49:27.249Z,99.90
2023-02-24T20:51:54.576Z,99.90
2023-02-24T20:54:22.898Z,99.90
2023-02-24T20:56:50.254Z,99.90
2023-02-24T20:59:19.102Z,99.90
2023-02-24T21:01:47.797Z,99.90
2023-02-24T21:04:16.296Z,99.90
2023-02-24T21:06:43.574Z,99.90
2023-02-24T21:09:12.008Z,99.90
2023-02-24T21:11:39.304Z,99.90
2023-02-24T21:14:07.123Z,99.90
2023-02-24T21:16:37.189Z,99.90
2023-02-24T21:19:04.494Z,99.90
2023-02-24T21:21:31.796Z,99.90
2023-02-24T21:23:59.092Z,99.90
2023-02-24T21:26:29.080Z,99.90
2023-02-24T21:28:57.855Z,99.90
2023-02-24T21:31:25.635Z,99.90
2023-02-24T21:33:53.327Z,99.90
2023-02-24T21:36:23.356Z,99.90
2023-02-24T21:38:51.487Z,99.90
2023-02-24T21:41:21.542Z,99.90
2023-02-24T21:43:52.060Z,99.90
2023-02-24T21:46:19.418Z,99.90
2023-02-24T21:48:46.778Z,99.90
2023-02-24T21:51:14.307Z,99.90
2023-02-24T21:53:43.700Z,99.90
2023-02-24T21:56:16.452Z,99.90
2023-02-24T21:58:49.170Z,99.90
2023-02-24T22:01:18.338Z,99.90
2023-02-24T22:03:45.722Z,99.90
2023-02-24T22:06:14.102Z,99.90
2023-02-24T22:08:45.406Z,99.90
2023-02-24T22:11:14.515Z,99.90
2023-02-24T22:13:42.247Z,99.90
2023-02-24T22:16:11.374Z,99.90
2023-02-24T22:18:38.794Z,99.90
2023-02-24T22:21:13.135Z,99.90
2023-02-24T22:23:40.342Z,99.90
2023-02-24T22:26:08.842Z,99.90
2023-02-24T22:28:38.236Z,99.90
2023-02-24T22:31:06.082Z,99.90
2023-02-24T22:33:35.076Z,99.90
2023-02-24T22:36:03.790Z,99.90
2023-02-24T22:38:32.646Z,99.90
2023-02-24T22:41:00.754Z,99.90
2023-02-24T22:43:28.792Z,99.90
2023-02-24T22:46:01.832Z,99.90
2023-02-24T22:48:29.381Z,99.90
2023-02-24T22:50:57.393Z,99.90
2023-02-24T22:53:24.845Z,99.90
2023-02-24T22:55:52.202Z,99.90
2023-02-24T22:58:20.151Z,99.90
2023-02-24T23:00:47.756Z,99.90
2023-02-24T23:03:16.471Z,99.90
2023-02-24T23:05:54.485Z,99.90
2023-02-24T23:08:21.926Z,99.90
2023-02-24T23:10:49.441Z,99.90
2023-02-24T23:13:17.981Z,99.90
2023-02-24T23:15:45.364Z,99.90
2023-02-24T23:18:13.866Z,99.90
2023-02-24T23:20:42.203Z,99.90
2023-02-24T23:23:10.619Z,99.90
2023-02-24T23:25:38.810Z,99.90
2023-02-24T23:28:06.451Z,99.90
2023-02-24T23:30:35.261Z,99.90
2023-02-24T23:33:03.118Z,99.90
2023-02-24T23:35:30.436Z,99.90
2023-02-24T23:37:57.703Z,99.90
2023-02-24T23:40:26.235Z,99.90
2023-02-24T23:42:54.301Z,99.90
2023-02-24T23:45:21.695Z,99.90
2023-02-24T23:47:49.188Z,99.90
2023-02-24T23:50:17.037Z,99.90
2023-02-24T23:52:44.486Z,99.90
2023-02-24T23:55:11.801Z,99.90
2023-02-24T23:57:39.206Z,99.90
